sensor_id;sensor_type;location;lat;lon;timestamp;temperature;humidity
41668;DHT22;27356;50.920;5.350;2023-04-03T00:01:31;3.60;99.90
41668;DHT22;27356;50.920;5.350;2023-04-03T00:03:57;3.70;99.90
41668;DHT22;27356;50.920;5.350;2023-04-03T00:06:24;3.80;99.90
41668;DHT22;27356;50.920;5.350;2023-04-03T00:08:51;3.60;99.90
41668;DHT22;27356;50.920;5.350;2023-04-03T00:11:17;3.60;99.90
41668;DHT22;27356;50.920;5.350;2023-04-03T00:13:44;3.60;99.90
41668;DHT22;27356;50.920;5.350;2023-04-03T00:16:11;3.60;99.90
41668;DHT22;27356;50.920;5.350;2023-04-03T00:18:37;3.50;99.90
41668;DHT22;27356;50.920;5.350;2023-04-03T00:21:04;3.40;99.90
41668;DHT22;27356;50.920;5.350;2023-04-03T00:23:30;3.10;99.90
41668;DHT22;27356;50.920;5.350;2023-04-03T00:25:56;2.90;99.90
41668;DHT22;27356;50.920;5.350;2023-04-03T00:28:22;2.80;99.90
41668;DHT22;27356;50.920;5.350;2023-04-03T00:30:51;2.90;99.90
41668;DHT22;27356;50.920;5.350;2023-04-03T00:33:17;2.80;99.90
41668;DHT22;27356;50.920;5.350;2023-04-03T00:35:43;2.70;99.90
41668;DHT22;27356;50.920;5.350;2023-04-03T00:38:09;2.60;99.90
41668;DHT22;27356;50.920;5.350;2023-04-03T00:40:42;2.50;99.90
41668;DHT22;27356;50.920;5.350;2023-04-03T00:43:17;2.60;99.90
41668;DHT22;27356;50.920;5.350;2023-04-03T00:45:46;2.70;99.90
41668;DHT22;27356;50.920;5.350;2023-04-03T00:48:36;2.90;99.90
41668;DHT22;27356;50.920;5.350;2023-04-03T00:51:05;2.90;99.90
41668;DHT22;27356;50.920;5.350;2023-04-03T00:54:05;2.90;99.90
41668;DHT22;27356;50.920;5.350;2023-04-03T00:56:32;3.00;99.90
41668;DHT22;27356;50.920;5.350;2023-04-03T00:59:20;2.90;99.90
41668;DHT22;27356;50.920;5.350;2023-04-03T01:01:48;2.90;99.90
41668;DHT22;27356;50.920;5.350;2023-04-03T01:04:44;2.80;99.90
41668;DHT22;27356;50.920;5.350;2023-04-03T01:07:23;2.60;99.90
41668;DHT22;27356;50.920;5.350;2023-04-03T01:09:52;2.60;99.90
41668;DHT22;27356;50.920;5.350;2023-04-03T01:14:51;2.50;99.90
41668;DHT22;27356;50.920;5.350;2023-04-03T01:17:36;2.50;99.90
41668;DHT22;27356;50.920;5.350;2023-04-03T01:25:53;2.30;99.90
41668;DHT22;27356;50.920;5.350;2023-04-03T01:28:26;2.30;99.90
41668;DHT22;27356;50.920;5.350;2023-04-03T01:33:37;2.30;99.90
41668;DHT22;27356;50.920;5.350;2023-04-03T01:36:03;2.20;99.90
41668;DHT22;27356;50.920;5.350;2023-04-03T01:38:29;2.10;99.90
41668;DHT22;27356;50.920;5.350;2023-04-03T01:40:56;2.10;99.90
41668;DHT22;27356;50.920;5.350;2023-04-03T01:43:24;2.20;99.90
41668;DHT22;27356;50.920;5.350;2023-04-03T01:45:50;2.10;99.90
41668;DHT22;27356;50.920;5.350;2023-04-03T01:48:17;2.20;99.90
41668;DHT22;27356;50.920;5.350;2023-04-03T01:50:43;2.30;99.90
41668;DHT22;27356;50.920;5.350;2023-04-03T01:53:09;2.30;99.90
41668;DHT22;27356;50.920;5.350;2023-04-03T01:55:35;2.30;99.90
41668;DHT22;27356;50.920;5.350;2023-04-03T01:58:00;2.20;99.90
41668;DHT22;27356;50.920;5.350;2023-04-03T02:00:26;2.20;99.90
41668;DHT22;27356;50.920;5.350;2023-04-03T02:02:52;2.30;99.90
41668;DHT22;27356;50.920;5.350;2023-04-03T02:05:18;2.30;99.90
41668;DHT22;27356;50.920;5.350;2023-04-03T02:07:43;2.40;99.90
41668;DHT22;27356;50.920;5.350;2023-04-03T02:10:10;2.30;99.90
41668;DHT22;27356;50.920;5.350;2023-04-03T02:12:36;2.20;99.90
41668;DHT22;27356;50.920;5.350;2023-04-03T02:15:01;2.10;99.90
41668;DHT22;27356;50.920;5.350;2023-04-03T02:17:27;2.10;99.90
41668;DHT22;27356;50.920;5.350;2023-04-03T02:19:53;2.10;99.90
41668;DHT22;27356;50.920;5.350;2023-04-03T02:22:18;2.00;99.90
41668;DHT22;27356;50.920;5.350;2023-04-03T02:24:45;2.00;99.90
41668;DHT22;27356;50.920;5.350;2023-04-03T02:27:11;1.90;99.90
41668;DHT22;27356;50.920;5.350;2023-04-03T02:29:37;1.70;99.90
41668;DHT22;27356;50.920;5.350;2023-04-03T02:32:03;1.70;99.90
41668;DHT22;27356;50.920;5.350;2023-04-03T02:34:29;1.70;99.90
41668;DHT22;27356;50.920;5.350;2023-04-03T02:36:54;1.70;99.90
41668;DHT22;27356;50.920;5.350;2023-04-03T02:39:20;1.80;99.90
41668;DHT22;27356;50.920;5.350;2023-04-03T02:41:46;1.70;99.90
41668;DHT22;27356;50.920;5.350;2023-04-03T02:44:21;1.60;99.90
41668;DHT22;27356;50.920;5.350;2023-04-03T02:46:53;1.50;99.90
41668;DHT22;27356;50.920;5.350;2023-04-03T02:49:19;1.50;99.90
41668;DHT22;27356;50.920;5.350;2023-04-03T02:51:45;1.50;99.90
41668;DHT22;27356;50.920;5.350;2023-04-03T02:54:11;1.40;99.90
41668;DHT22;27356;50.920;5.350;2023-04-03T02:56:37;1.40;99.90
41668;DHT22;27356;50.920;5.350;2023-04-03T02:59:03;1.50;99.90
41668;DHT22;27356;50.920;5.350;2023-04-03T03:01:28;1.40;99.90
41668;DHT22;27356;50.920;5.350;2023-04-03T03:03:57;1.30;99.90
41668;DHT22;27356;50.920;5.350;2023-04-03T03:06:23;1.30;99.90
41668;DHT22;27356;50.920;5.350;2023-04-03T03:08:49;1.20;99.90
41668;DHT22;27356;50.920;5.350;2023-04-03T03:11:14;1.20;99.90
41668;DHT22;27356;50.920;5.350;2023-04-03T03:13:40;1.30;99.90
41668;DHT22;27356;50.920;5.350;2023-04-03T03:16:06;1.20;99.90
41668;DHT22;27356;50.920;5.350;2023-04-03T03:18:32;1.10;99.90
41668;DHT22;27356;50.920;5.350;2023-04-03T03:21:00;1.20;99.90
41668;DHT22;27356;50.920;5.350;2023-04-03T03:23:27;1.10;99.90
41668;DHT22;27356;50.920;5.350;2023-04-03T03:25:58;1.20;99.90
41668;DHT22;27356;50.920;5.350;2023-04-03T03:28:24;1.30;99.90
41668;DHT22;27356;50.920;5.350;2023-04-03T03:30:50;1.20;99.90
41668;DHT22;27356;50.920;5.350;2023-04-03T03:33:16;1.10;99.90
41668;DHT22;27356;50.920;5.350;2023-04-03T03:35:42;1.00;99.90
41668;DHT22;27356;50.920;5.350;2023-04-03T03:38:09;1.10;99.90
41668;DHT22;27356;50.920;5.350;2023-04-03T03:40:34;1.10;99.90
41668;DHT22;27356;50.920;5.350;2023-04-03T03:43:00;1.10;99.90
41668;DHT22;27356;50.920;5.350;2023-04-03T03:45:26;1.10;99.90
41668;DHT22;27356;50.920;5.350;2023-04-03T03:47:52;1.10;99.90
41668;DHT22;27356;50.920;5.350;2023-04-03T03:50:18;1.20;99.90
41668;DHT22;27356;50.920;5.350;2023-04-03T03:52:44;1.10;99.90
41668;DHT22;27356;50.920;5.350;2023-04-03T03:55:10;1.00;99.90
41668;DHT22;27356;50.920;5.350;2023-04-03T03:57:36;1.10;99.90
41668;DHT22;27356;50.920;5.350;2023-04-03T04:00:02;1.10;99.90
41668;DHT22;27356;50.920;5.350;2023-04-03T04:02:28;1.30;99.90
41668;DHT22;27356;50.920;5.350;2023-04-03T04:04:54;1.40;99.90
41668;DHT22;27356;50.920;5.350;2023-04-03T04:07:20;1.30;99.90
41668;DHT22;27356;50.920;5.350;2023-04-03T04:09:46;1.20;99.90
41668;DHT22;27356;50.920;5.350;2023-04-03T04:12:11;1.10;99.90
41668;DHT22;27356;50.920;5.350;2023-04-03T04:14:37;1.10;99.90
41668;DHT22;27356;50.920;5.350;2023-04-03T04:17:03;1.10;99.90
41668;DHT22;27356;50.920;5.350;2023-04-03T04:19:29;1.20;99.90
41668;DHT22;27356;50.920;5.350;2023-04-03T04:21:54;1.10;99.90
41668;DHT22;27356;50.920;5.350;2023-04-03T04:24:20;1.00;99.90
41668;DHT22;27356;50.920;5.350;2023-04-03T04:26:48;1.00;99.90
41668;DHT22;27356;50.920;5.350;2023-04-03T04:29:14;1.00;99.90
41668;DHT22;27356;50.920;5.350;2023-04-03T04:31:40;1.10;99.90
41668;DHT22;27356;50.920;5.350;2023-04-03T04:34:06;1.10;99.90
41668;DHT22;27356;50.920;5.350;2023-04-03T04:36:31;1.10;99.90
41668;DHT22;27356;50.920;5.350;2023-04-03T04:38:57;1.00;99.90
41668;DHT22;27356;50.920;5.350;2023-04-03T04:41:23;0.90;99.90
41668;DHT22;27356;50.920;5.350;2023-04-03T04:43:50;0.80;99.90
41668;DHT22;27356;50.920;5.350;2023-04-03T04:46:16;0.90;99.90
41668;DHT22;27356;50.920;5.350;2023-04-03T04:48:43;0.90;99.90
41668;DHT22;27356;50.920;5.350;2023-04-03T04:51:09;0.80;99.90
41668;DHT22;27356;50.920;5.350;2023-04-03T04:53:34;0.80;99.90
41668;DHT22;27356;50.920;5.350;2023-04-03T04:56:00;0.80;99.90
41668;DHT22;27356;50.920;5.350;2023-04-03T04:58:26;0.70;99.90
41668;DHT22;27356;50.920;5.350;2023-04-03T05:00:59;0.70;99.90
41668;DHT22;27356;50.920;5.350;2023-04-03T05:03:25;0.70;99.90
41668;DHT22;27356;50.920;5.350;2023-04-03T05:05:51;0.80;99.90
41668;DHT22;27356;50.920;5.350;2023-04-03T05:08:16;0.60;99.90
41668;DHT22;27356;50.920;5.350;2023-04-03T05:10:42;0.50;99.90
41668;DHT22;27356;50.920;5.350;2023-04-03T05:13:09;0.60;99.90
41668;DHT22;27356;50.920;5.350;2023-04-03T05:15:35;0.90;99.90
41668;DHT22;27356;50.920;5.350;2023-04-03T05:18:01;0.90;99.90
41668;DHT22;27356;50.920;5.350;2023-04-03T05:20:26;1.10;99.90
41668;DHT22;27356;50.920;5.350;2023-04-03T05:22:52;1.20;99.90
41668;DHT22;27356;50.920;5.350;2023-04-03T05:25:18;1.10;99.90
41668;DHT22;27356;50.920;5.350;2023-04-03T05:27:43;1.30;99.90
41668;DHT22;27356;50.920;5.350;2023-04-03T05:30:11;1.30;99.90
41668;DHT22;27356;50.920;5.350;2023-04-03T05:32:37;1.30;99.90
41668;DHT22;27356;50.920;5.350;2023-04-03T05:35:03;1.30;99.90
41668;DHT22;27356;50.920;5.350;2023-04-03T05:37:28;1.30;99.90
41668;DHT22;27356;50.920;5.350;2023-04-03T05:39:54;1.30;99.90
41668;DHT22;27356;50.920;5.350;2023-04-03T05:42:20;1.30;99.90
41668;DHT22;27356;50.920;5.350;2023-04-03T05:44:46;1.40;99.90
41668;DHT22;27356;50.920;5.350;2023-04-03T05:47:12;1.40;99.90
41668;DHT22;27356;50.920;5.350;2023-04-03T05:49:38;1.40;99.90
41668;DHT22;27356;50.920;5.350;2023-04-03T05:52:40;1.50;99.90
41668;DHT22;27356;50.920;5.350;2023-04-03T05:54:58;1.50;99.90
41668;DHT22;27356;50.920;5.350;2023-04-03T05:57:24;1.70;99.90
41668;DHT22;27356;50.920;5.350;2023-04-03T05:59:49;1.80;99.90
41668;DHT22;27356;50.920;5.350;2023-04-03T06:02:18;1.80;99.90
41668;DHT22;27356;50.920;5.350;2023-04-03T06:04:44;1.80;99.90
41668;DHT22;27356;50.920;5.350;2023-04-03T06:07:12;2.20;99.90
41668;DHT22;27356;50.920;5.350;2023-04-03T06:09:38;2.70;99.90
41668;DHT22;27356;50.920;5.350;2023-04-03T06:12:04;3.50;99.90
41668;DHT22;27356;50.920;5.350;2023-04-03T06:14:30;4.10;99.90
41668;DHT22;27356;50.920;5.350;2023-04-03T06:16:56;4.80;99.90
41668;DHT22;27356;50.920;5.350;2023-04-03T06:19:22;5.30;99.90
41668;DHT22;27356;50.920;5.350;2023-04-03T06:21:48;6.00;99.90
41668;DHT22;27356;50.920;5.350;2023-04-03T06:24:15;6.50;99.90
41668;DHT22;27356;50.920;5.350;2023-04-03T06:26:42;6.90;99.90
41668;DHT22;27356;50.920;5.350;2023-04-03T06:29:08;7.30;99.90
41668;DHT22;27356;50.920;5.350;2023-04-03T06:31:34;7.50;99.90
41668;DHT22;27356;50.920;5.350;2023-04-03T06:34:00;7.70;99.90
41668;DHT22;27356;50.920;5.350;2023-04-03T06:36:26;7.80;99.90
41668;DHT22;27356;50.920;5.350;2023-04-03T06:38:52;8.00;99.90
41668;DHT22;27356;50.920;5.350;2023-04-03T06:41:18;7.80;99.90
41668;DHT22;27356;50.920;5.350;2023-04-03T06:43:44;7.80;99.90
41668;DHT22;27356;50.920;5.350;2023-04-03T06:46:21;7.70;99.90
41668;DHT22;27356;50.920;5.350;2023-04-03T06:48:48;8.20;99.90
41668;DHT22;27356;50.920;5.350;2023-04-03T06:53:46;8.60;99.90
41668;DHT22;27356;50.920;5.350;2023-04-03T06:56:12;8.50;99.70
41668;DHT22;27356;50.920;5.350;2023-04-03T06:58:38;8.40;99.60
41668;DHT22;27356;50.920;5.350;2023-04-03T07:01:04;8.70;99.20
41668;DHT22;27356;50.920;5.350;2023-04-03T07:03:30;9.00;99.10
41668;DHT22;27356;50.920;5.350;2023-04-03T07:05:56;8.80;98.30
41668;DHT22;27356;50.920;5.350;2023-04-03T07:08:22;8.90;98.60
41668;DHT22;27356;50.920;5.350;2023-04-03T07:10:49;8.60;98.40
41668;DHT22;27356;50.920;5.350;2023-04-03T07:13:16;8.70;98.70
41668;DHT22;27356;50.920;5.350;2023-04-03T07:15:41;9.00;98.70
41668;DHT22;27356;50.920;5.350;2023-04-03T07:18:07;9.60;98.30
41668;DHT22;27356;50.920;5.350;2023-04-03T07:20:34;10.10;97.30
41668;DHT22;27356;50.920;5.350;2023-04-03T07:23:00;10.30;97.30
41668;DHT22;27356;50.920;5.350;2023-04-03T07:25:28;10.70;96.10
41668;DHT22;27356;50.920;5.350;2023-04-03T07:27:54;10.80;94.50
41668;DHT22;27356;50.920;5.350;2023-04-03T07:30:20;10.40;94.70
41668;DHT22;27356;50.920;5.350;2023-04-03T07:32:46;10.30;95.80
41668;DHT22;27356;50.920;5.350;2023-04-03T07:35:12;10.20;94.90
41668;DHT22;27356;50.920;5.350;2023-04-03T07:37:38;10.00;95.60
41668;DHT22;27356;50.920;5.350;2023-04-03T07:40:04;10.20;95.10
41668;DHT22;27356;50.920;5.350;2023-04-03T07:42:30;10.20;94.80
41668;DHT22;27356;50.920;5.350;2023-04-03T07:44:57;10.30;94.90
41668;DHT22;27356;50.920;5.350;2023-04-03T07:47:22;10.40;94.40
41668;DHT22;27356;50.920;5.350;2023-04-03T07:49:48;10.50;94.20
41668;DHT22;27356;50.920;5.350;2023-04-03T07:52:14;10.60;94.70
41668;DHT22;27356;50.920;5.350;2023-04-03T07:54:41;11.00;94.70
41668;DHT22;27356;50.920;5.350;2023-04-03T07:57:07;11.50;93.20
41668;DHT22;27356;50.920;5.350;2023-04-03T07:59:33;11.60;92.10
41668;DHT22;27356;50.920;5.350;2023-04-03T08:01:59;11.60;92.90
41668;DHT22;27356;50.920;5.350;2023-04-03T08:04:25;11.80;92.50
41668;DHT22;27356;50.920;5.350;2023-04-03T08:06:51;12.10;92.10
41668;DHT22;27356;50.920;5.350;2023-04-03T08:09:17;12.10;90.80
41668;DHT22;27356;50.920;5.350;2023-04-03T08:11:44;12.10;91.70
41668;DHT22;27356;50.920;5.350;2023-04-03T08:14:11;11.00;91.30
41668;DHT22;27356;50.920;5.350;2023-04-03T08:16:43;10.60;93.10
41668;DHT22;27356;50.920;5.350;2023-04-03T08:19:09;11.30;93.00
41668;DHT22;27356;50.920;5.350;2023-04-03T08:21:36;11.90;91.70
41668;DHT22;27356;50.920;5.350;2023-04-03T08:24:02;11.80;90.90
41668;DHT22;27356;50.920;5.350;2023-04-03T08:26:29;11.90;91.90
41668;DHT22;27356;50.920;5.350;2023-04-03T08:28:57;12.30;90.60
41668;DHT22;27356;50.920;5.350;2023-04-03T08:31:24;12.70;89.20
41668;DHT22;27356;50.920;5.350;2023-04-03T08:33:50;12.20;90.20
41668;DHT22;27356;50.920;5.350;2023-04-03T08:36:20;11.90;90.40
41668;DHT22;27356;50.920;5.350;2023-04-03T08:38:47;12.30;90.10
41668;DHT22;27356;50.920;5.350;2023-04-03T08:41:33;11.90;89.80
41668;DHT22;27356;50.920;5.350;2023-04-03T08:49:51;11.60;90.80
41668;DHT22;27356;50.920;5.350;2023-04-03T08:54:59;12.10;90.80
41668;DHT22;27356;50.920;5.350;2023-04-03T08:57:41;12.20;89.10
41668;DHT22;27356;50.920;5.350;2023-04-03T09:02:57;12.00;89.30
41668;DHT22;27356;50.920;5.350;2023-04-03T09:08:07;11.90;88.60
41668;DHT22;27356;50.920;5.350;2023-04-03T09:10:38;11.70;90.10
41668;DHT22;27356;50.920;5.350;2023-04-03T09:13:30;11.90;87.10
41668;DHT22;27356;50.920;5.350;2023-04-03T09:16:00;11.70;86.30
41668;DHT22;27356;50.920;5.350;2023-04-03T09:18:31;11.50;89.60
41668;DHT22;27356;50.920;5.350;2023-04-03T09:21:08;11.60;89.50
41668;DHT22;27356;50.920;5.350;2023-04-03T09:23:51;11.70;87.30
41668;DHT22;27356;50.920;5.350;2023-04-03T09:26:30;12.30;87.70
41668;DHT22;27356;50.920;5.350;2023-04-03T09:29:05;12.10;86.60
41668;DHT22;27356;50.920;5.350;2023-04-03T09:31:40;11.90;86.00
41668;DHT22;27356;50.920;5.350;2023-04-03T09:34:17;11.90;86.90
41668;DHT22;27356;50.920;5.350;2023-04-03T09:36:48;12.10;87.70
41668;DHT22;27356;50.920;5.350;2023-04-03T09:39:26;12.00;85.00
41668;DHT22;27356;50.920;5.350;2023-04-03T09:44:35;11.40;88.80
41668;DHT22;27356;50.920;5.350;2023-04-03T09:52:44;9.50;88.50
41668;DHT22;27356;50.920;5.350;2023-04-03T09:55:25;9.00;90.40
41668;DHT22;27356;50.920;5.350;2023-04-03T09:58:01;8.80;90.50
41668;DHT22;27356;50.920;5.350;2023-04-03T10:00:36;8.70;90.60
41668;DHT22;27356;50.920;5.350;2023-04-03T10:03:25;8.60;91.10
41668;DHT22;27356;50.920;5.350;2023-04-03T10:05:52;8.90;91.20
41668;DHT22;27356;50.920;5.350;2023-04-03T10:08:34;8.80;90.50
41668;DHT22;27356;50.920;5.350;2023-04-03T10:13:49;8.80;91.30
41668;DHT22;27356;50.920;5.350;2023-04-03T10:16:18;8.50;88.70
41668;DHT22;27356;50.920;5.350;2023-04-03T10:22:02;8.50;83.50
41668;DHT22;27356;50.920;5.350;2023-04-03T10:24:57;8.50;84.70
41668;DHT22;27356;50.920;5.350;2023-04-03T10:38:48;8.10;78.20
41668;DHT22;27356;50.920;5.350;2023-04-03T10:46:55;8.10;76.50
41668;DHT22;27356;50.920;5.350;2023-04-03T10:52:40;8.50;76.40
41668;DHT22;27356;50.920;5.350;2023-04-03T10:55:43;8.40;75.50
41668;DHT22;27356;50.920;5.350;2023-04-03T10:58:18;8.40;75.20
41668;DHT22;27356;50.920;5.350;2023-04-03T11:00:48;8.30;76.20
41668;DHT22;27356;50.920;5.350;2023-04-03T11:03:41;8.30;74.20
41668;DHT22;27356;50.920;5.350;2023-04-03T11:06:11;8.30;73.70
41668;DHT22;27356;50.920;5.350;2023-04-03T11:08:46;8.30;75.00
41668;DHT22;27356;50.920;5.350;2023-04-03T11:11:20;8.50;76.40
41668;DHT22;27356;50.920;5.350;2023-04-03T11:13:57;8.60;75.10
41668;DHT22;27356;50.920;5.350;2023-04-03T11:16:28;8.60;73.80
41668;DHT22;27356;50.920;5.350;2023-04-03T11:21:32;8.50;71.90
41668;DHT22;27356;50.920;5.350;2023-04-03T11:24:03;8.40;73.80
41668;DHT22;27356;50.920;5.350;2023-04-03T11:26:32;8.30;72.10
41668;DHT22;27356;50.920;5.350;2023-04-03T11:29:06;8.50;73.40
41668;DHT22;27356;50.920;5.350;2023-04-03T11:31:43;8.40;72.60
41668;DHT22;27356;50.920;5.350;2023-04-03T11:34:44;8.40;73.00
41668;DHT22;27356;50.920;5.350;2023-04-03T11:37:28;8.60;75.60
41668;DHT22;27356;50.920;5.350;2023-04-03T11:42:49;8.50;75.40
41668;DHT22;27356;50.920;5.350;2023-04-03T11:47:57;8.40;78.30
41668;DHT22;27356;50.920;5.350;2023-04-03T12:00:56;8.50;75.70
41668;DHT22;27356;50.920;5.350;2023-04-03T12:08:28;8.60;75.90
41668;DHT22;27356;50.920;5.350;2023-04-03T12:24:27;8.60;76.90
41668;DHT22;27356;50.920;5.350;2023-04-03T12:38:33;8.80;74.00
41668;DHT22;27356;50.920;5.350;2023-04-03T12:51:34;8.70;75.80
41668;DHT22;27356;50.920;5.350;2023-04-03T12:54:12;8.70;76.30
41668;DHT22;27356;50.920;5.350;2023-04-03T12:56:38;8.80;77.80
41668;DHT22;27356;50.920;5.350;2023-04-03T12:59:26;8.90;77.80
41668;DHT22;27356;50.920;5.350;2023-04-03T13:02:02;9.00;78.40
41668;DHT22;27356;50.920;5.350;2023-04-03T13:04:30;9.00;78.30
41668;DHT22;27356;50.920;5.350;2023-04-03T13:06:57;8.90;76.60
41668;DHT22;27356;50.920;5.350;2023-04-03T13:09:27;8.90;76.90
41668;DHT22;27356;50.920;5.350;2023-04-03T13:12:13;8.90;76.90
41668;DHT22;27356;50.920;5.350;2023-04-03T13:14:40;9.00;78.00
41668;DHT22;27356;50.920;5.350;2023-04-03T13:17:16;9.10;78.70
41668;DHT22;27356;50.920;5.350;2023-04-03T13:19:44;9.30;79.60
41668;DHT22;27356;50.920;5.350;2023-04-03T13:22:31;9.40;76.50
41668;DHT22;27356;50.920;5.350;2023-04-03T13:25:03;9.50;79.30
41668;DHT22;27356;50.920;5.350;2023-04-03T13:27:31;9.50;77.30
41668;DHT22;27356;50.920;5.350;2023-04-03T13:29:59;9.40;75.40
41668;DHT22;27356;50.920;5.350;2023-04-03T13:32:28;9.40;76.80
41668;DHT22;27356;50.920;5.350;2023-04-03T13:34:55;9.30;77.80
41668;DHT22;27356;50.920;5.350;2023-04-03T13:37:30;9.30;79.40
41668;DHT22;27356;50.920;5.350;2023-04-03T13:42:37;9.40;78.60
41668;DHT22;27356;50.920;5.350;2023-04-03T13:45:22;9.20;78.80
41668;DHT22;27356;50.920;5.350;2023-04-03T13:47:50;9.10;77.80
41668;DHT22;27356;50.920;5.350;2023-04-03T13:50:24;9.20;77.70
41668;DHT22;27356;50.920;5.350;2023-04-03T13:53:11;9.10;78.60
41668;DHT22;27356;50.920;5.350;2023-04-03T13:56:37;9.20;79.80
41668;DHT22;27356;50.920;5.350;2023-04-03T13:58:57;9.40;79.60
41668;DHT22;27356;50.920;5.350;2023-04-03T14:01:32;9.50;78.10
41668;DHT22;27356;50.920;5.350;2023-04-03T14:03:59;9.40;77.80
41668;DHT22;27356;50.920;5.350;2023-04-03T14:06:25;9.50;78.20
41668;DHT22;27356;50.920;5.350;2023-04-03T14:08:51;9.50;78.80
41668;DHT22;27356;50.920;5.350;2023-04-03T14:11:21;9.50;78.40
41668;DHT22;27356;50.920;5.350;2023-04-03T14:13:49;9.50;76.60
41668;DHT22;27356;50.920;5.350;2023-04-03T14:16:21;9.40;77.20
41668;DHT22;27356;50.920;5.350;2023-04-03T14:18:49;9.50;77.70
41668;DHT22;27356;50.920;5.350;2023-04-03T14:21:17;9.70;78.00
41668;DHT22;27356;50.920;5.350;2023-04-03T14:23:43;9.70;76.40
41668;DHT22;27356;50.920;5.350;2023-04-03T14:26:14;9.60;77.80
41668;DHT22;27356;50.920;5.350;2023-04-03T14:28:42;9.60;79.00
41668;DHT22;27356;50.920;5.350;2023-04-03T14:31:10;9.60;77.80
41668;DHT22;27356;50.920;5.350;2023-04-03T14:33:36;9.70;78.60
41668;DHT22;27356;50.920;5.350;2023-04-03T14:36:12;9.70;77.00
41668;DHT22;27356;50.920;5.350;2023-04-03T14:38:39;9.70;76.10
41668;DHT22;27356;50.920;5.350;2023-04-03T14:41:05;9.80;77.10
41668;DHT22;27356;50.920;5.350;2023-04-03T14:43:31;9.80;76.60
41668;DHT22;27356;50.920;5.350;2023-04-03T14:45:56;9.70;76.30
41668;DHT22;27356;50.920;5.350;2023-04-03T14:48:25;9.70;77.30
41668;DHT22;27356;50.920;5.350;2023-04-03T14:50:52;9.80;78.40
41668;DHT22;27356;50.920;5.350;2023-04-03T14:53:19;9.80;76.40
41668;DHT22;27356;50.920;5.350;2023-04-03T14:55:49;9.70;75.30
41668;DHT22;27356;50.920;5.350;2023-04-03T14:58:20;9.70;76.30
41668;DHT22;27356;50.920;5.350;2023-04-03T15:00:46;9.80;76.20
41668;DHT22;27356;50.920;5.350;2023-04-03T15:03:17;9.90;76.50
41668;DHT22;27356;50.920;5.350;2023-04-03T15:05:44;9.90;76.90
41668;DHT22;27356;50.920;5.350;2023-04-03T15:10:44;9.80;78.60
41668;DHT22;27356;50.920;5.350;2023-04-03T15:13:12;9.90;78.70
41668;DHT22;27356;50.920;5.350;2023-04-03T15:15:38;10.00;76.20
41668;DHT22;27356;50.920;5.350;2023-04-03T15:18:04;10.00;75.30
41668;DHT22;27356;50.920;5.350;2023-04-03T15:20:30;9.90;74.10
41668;DHT22;27356;50.920;5.350;2023-04-03T15:22:59;9.90;75.90
41668;DHT22;27356;50.920;5.350;2023-04-03T15:25:28;9.80;74.40
41668;DHT22;27356;50.920;5.350;2023-04-03T15:27:55;9.80;77.80
41668;DHT22;27356;50.920;5.350;2023-04-03T15:30:21;9.80;77.00
41668;DHT22;27356;50.920;5.350;2023-04-03T15:32:48;9.80;77.80
41668;DHT22;27356;50.920;5.350;2023-04-03T15:35:14;9.80;76.90
41668;DHT22;27356;50.920;5.350;2023-04-03T15:37:39;9.90;77.40
41668;DHT22;27356;50.920;5.350;2023-04-03T15:40:06;9.90;76.70
41668;DHT22;27356;50.920;5.350;2023-04-03T15:42:33;9.90;77.10
41668;DHT22;27356;50.920;5.350;2023-04-03T15:44:58;9.90;76.00
41668;DHT22;27356;50.920;5.350;2023-04-03T15:47:25;9.80;76.80
41668;DHT22;27356;50.920;5.350;2023-04-03T15:49:52;9.80;75.60
41668;DHT22;27356;50.920;5.350;2023-04-03T15:52:18;9.80;78.20
41668;DHT22;27356;50.920;5.350;2023-04-03T15:54:44;9.80;76.00
41668;DHT22;27356;50.920;5.350;2023-04-03T15:57:10;9.60;76.50
41668;DHT22;27356;50.920;5.350;2023-04-03T15:59:36;9.60;77.30
41668;DHT22;27356;50.920;5.350;2023-04-03T16:02:04;9.70;77.50
41668;DHT22;27356;50.920;5.350;2023-04-03T16:04:31;9.70;76.70
41668;DHT22;27356;50.920;5.350;2023-04-03T16:07:01;9.70;76.60
41668;DHT22;27356;50.920;5.350;2023-04-03T16:09:27;9.60;77.20
41668;DHT22;27356;50.920;5.350;2023-04-03T16:11:52;9.60;76.90
41668;DHT22;27356;50.920;5.350;2023-04-03T16:14:18;9.50;77.10
41668;DHT22;27356;50.920;5.350;2023-04-03T16:16:44;9.50;76.60
41668;DHT22;27356;50.920;5.350;2023-04-03T16:19:10;9.50;76.20
41668;DHT22;27356;50.920;5.350;2023-04-03T16:21:36;9.40;76.20
41668;DHT22;27356;50.920;5.350;2023-04-03T16:24:02;9.40;76.30
41668;DHT22;27356;50.920;5.350;2023-04-03T16:26:27;9.40;76.80
41668;DHT22;27356;50.920;5.350;2023-04-03T16:28:53;9.40;75.80
41668;DHT22;27356;50.920;5.350;2023-04-03T16:31:20;9.40;75.70
41668;DHT22;27356;50.920;5.350;2023-04-03T16:33:46;9.40;76.60
41668;DHT22;27356;50.920;5.350;2023-04-03T16:36:12;9.40;77.00
41668;DHT22;27356;50.920;5.350;2023-04-03T16:38:37;9.50;75.90
41668;DHT22;27356;50.920;5.350;2023-04-03T16:41:03;9.50;76.40
41668;DHT22;27356;50.920;5.350;2023-04-03T16:43:33;9.50;76.70
41668;DHT22;27356;50.920;5.350;2023-04-03T16:45:59;9.30;76.00
41668;DHT22;27356;50.920;5.350;2023-04-03T16:48:28;9.30;76.40
41668;DHT22;27356;50.920;5.350;2023-04-03T16:50:54;9.20;75.80
41668;DHT22;27356;50.920;5.350;2023-04-03T16:53:21;9.20;76.00
41668;DHT22;27356;50.920;5.350;2023-04-03T16:55:46;9.20;76.20
41668;DHT22;27356;50.920;5.350;2023-04-03T16:58:12;9.20;76.80
41668;DHT22;27356;50.920;5.350;2023-04-03T17:00:38;9.10;76.10
41668;DHT22;27356;50.920;5.350;2023-04-03T17:03:04;9.10;76.40
41668;DHT22;27356;50.920;5.350;2023-04-03T17:05:30;9.00;76.70
41668;DHT22;27356;50.920;5.350;2023-04-03T17:07:55;8.90;76.20
41668;DHT22;27356;50.920;5.350;2023-04-03T17:10:21;8.90;76.20
41668;DHT22;27356;50.920;5.350;2023-04-03T17:12:47;9.00;76.90
41668;DHT22;27356;50.920;5.350;2023-04-03T17:15:12;8.90;77.00
41668;DHT22;27356;50.920;5.350;2023-04-03T17:17:38;8.90;77.50
41668;DHT22;27356;50.920;5.350;2023-04-03T17:20:04;8.80;78.50
41668;DHT22;27356;50.920;5.350;2023-04-03T17:22:31;8.80;78.90
41668;DHT22;27356;50.920;5.350;2023-04-03T17:24:57;8.70;77.90
41668;DHT22;27356;50.920;5.350;2023-04-03T17:27:24;8.70;77.80
41668;DHT22;27356;50.920;5.350;2023-04-03T17:29:50;8.70;78.30
41668;DHT22;27356;50.920;5.350;2023-04-03T17:32:16;8.60;78.50
41668;DHT22;27356;50.920;5.350;2023-04-03T17:34:41;8.60;79.30
41668;DHT22;27356;50.920;5.350;2023-04-03T17:37:07;8.50;79.50
41668;DHT22;27356;50.920;5.350;2023-04-03T17:39:33;8.60;79.60
41668;DHT22;27356;50.920;5.350;2023-04-03T17:41:58;8.60;80.10
41668;DHT22;27356;50.920;5.350;2023-04-03T17:44:25;8.50;79.80
41668;DHT22;27356;50.920;5.350;2023-04-03T17:46:51;8.40;80.20
41668;DHT22;27356;50.920;5.350;2023-04-03T17:49:17;8.30;80.30
41668;DHT22;27356;50.920;5.350;2023-04-03T17:51:45;8.30;80.10
41668;DHT22;27356;50.920;5.350;2023-04-03T17:54:11;8.20;79.90
41668;DHT22;27356;50.920;5.350;2023-04-03T17:56:36;8.20;79.60
41668;DHT22;27356;50.920;5.350;2023-04-03T17:59:02;8.20;79.70
41668;DHT22;27356;50.920;5.350;2023-04-03T18:01:30;8.10;79.80